Terminal Aerodrome Forecast
Issued by NWS

Home | Current Version | Previous Version | Text Only | Print | Product List | Glossary On
Versions: 1 2 3 4 5 6 7 8 9 10 11 12 13 14
097
FTUS44 KSJT 231546 AAA
TAFJCT
TAF AMD
KJCT 231546Z 2316/2412 VRB03KT 2SM RA SCT060 OVC100
     FM231700 VRB04KT 5SM -RA BKN060 OVC100
     FM232100 08006KT P6SM VCTS BKN050CB
     FM240200 05006KT P6SM VCSH BKN050=

USA.gov is the U.S. government's official web portal to all federal, state and local government web resources and services.